sensor_id;sensor_type;location;lat;lon;timestamp;P1;durP1;ratioP1;P2;durP2;ratioP2
38972;SDS011;25333;50.762;4.470;2024-01-27T01:46:44;8.10;;;3.45;;
38972;SDS011;25333;50.762;4.470;2024-01-27T01:54:13;5.70;;;3.40;;
38972;SDS011;25333;50.762;4.470;2024-01-27T02:00:39;8.02;;;4.68;;
38972;SDS011;25333;50.762;4.470;2024-01-27T02:03:23;13.25;;;4.22;;
38972;SDS011;25333;50.762;4.470;2024-01-27T02:06:07;8.30;;;3.83;;
38972;SDS011;25333;50.762;4.470;2024-01-27T02:09:18;7.28;;;3.92;;
38972;SDS011;25333;50.762;4.470;2024-01-27T02:11:54;7.03;;;4.00;;
38972;SDS011;25333;50.762;4.470;2024-01-27T02:17:33;10.07;;;4.00;;
38972;SDS011;25333;50.762;4.470;2024-01-27T02:19:59;11.13;;;4.72;;
38972;SDS011;25333;50.762;4.470;2024-01-27T02:22:25;9.40;;;4.35;;
38972;SDS011;25333;50.762;4.470;2024-01-27T02:24:52;8.70;;;4.30;;
38972;SDS011;25333;50.762;4.470;2024-01-27T02:27:18;7.97;;;3.65;;
38972;SDS011;25333;50.762;4.470;2024-01-27T02:32:35;9.68;;;3.75;;
38972;SDS011;25333;50.762;4.470;2024-01-27T02:41:24;7.93;;;4.10;;
38972;SDS011;25333;50.762;4.470;2024-01-27T02:43:50;8.35;;;3.95;;
38972;SDS011;25333;50.762;4.470;2024-01-27T02:46:15;6.60;;;4.43;;
38972;SDS011;25333;50.762;4.470;2024-01-27T02:49:01;10.13;;;4.67;;
38972;SDS011;25333;50.762;4.470;2024-01-27T02:51:56;6.15;;;3.35;;
38972;SDS011;25333;50.762;4.470;2024-01-27T02:54:21;9.05;;;3.85;;
38972;SDS011;25333;50.762;4.470;2024-01-27T02:56:47;9.30;;;4.10;;
38972;SDS011;25333;50.762;4.470;2024-01-27T02:59:13;8.97;;;3.33;;
38972;SDS011;25333;50.762;4.470;2024-01-27T03:04:41;10.30;;;3.65;;
38972;SDS011;25333;50.762;4.470;2024-01-27T03:10:13;6.60;;;3.80;;
38972;SDS011;25333;50.762;4.470;2024-01-27T03:12:38;11.20;;;3.65;;
38972;SDS011;25333;50.762;4.470;2024-01-27T03:15:04;5.50;;;3.47;;
38972;SDS011;25333;50.762;4.470;2024-01-27T03:17:30;8.32;;;4.22;;
38972;SDS011;25333;50.762;4.470;2024-01-27T03:20:02;6.97;;;3.83;;
38972;SDS011;25333;50.762;4.470;2024-01-27T03:22:28;7.93;;;4.10;;
38972;SDS011;25333;50.762;4.470;2024-01-27T03:24:54;9.70;;;3.58;;
38972;SDS011;25333;50.762;4.470;2024-01-27T03:27:20;7.70;;;3.67;;
38972;SDS011;25333;50.762;4.470;2024-01-27T03:35:50;7.47;;;3.58;;
38972;SDS011;25333;50.762;4.470;2024-01-27T03:38:18;8.27;;;3.63;;
38972;SDS011;25333;50.762;4.470;2024-01-27T03:40:57;13.67;;;3.80;;
38972;SDS011;25333;50.762;4.470;2024-01-27T03:43:28;7.05;;;3.65;;
38972;SDS011;25333;50.762;4.470;2024-01-27T03:46:11;8.05;;;3.47;;
38972;SDS011;25333;50.762;4.470;2024-01-27T03:48:56;7.60;;;3.58;;
38972;SDS011;25333;50.762;4.470;2024-01-27T03:51:22;9.10;;;4.03;;
38972;SDS011;25333;50.762;4.470;2024-01-27T03:53:56;7.93;;;4.10;;
38972;SDS011;25333;50.762;4.470;2024-01-27T03:57:08;6.55;;;3.33;;
38972;SDS011;25333;50.762;4.470;2024-01-27T03:59:34;7.18;;;3.20;;
38972;SDS011;25333;50.762;4.470;2024-01-27T04:02:00;4.28;;;3.15;;
38972;SDS011;25333;50.762;4.470;2024-01-27T04:04:26;6.43;;;3.65;;
38972;SDS011;25333;50.762;4.470;2024-01-27T04:07:00;6.75;;;3.22;;
38972;SDS011;25333;50.762;4.470;2024-01-27T04:09:41;6.18;;;3.40;;
38972;SDS011;25333;50.762;4.470;2024-01-27T04:12:25;7.43;;;3.55;;
38972;SDS011;25333;50.762;4.470;2024-01-27T04:14:51;6.55;;;3.40;;
38972;SDS011;25333;50.762;4.470;2024-01-27T04:17:16;11.70;;;3.75;;
38972;SDS011;25333;50.762;4.470;2024-01-27T04:19:42;9.32;;;3.90;;
38972;SDS011;25333;50.762;4.470;2024-01-27T04:22:08;7.88;;;4.10;;
38972;SDS011;25333;50.762;4.470;2024-01-27T04:24:33;8.05;;;4.22;;
38972;SDS011;25333;50.762;4.470;2024-01-27T04:26:59;5.80;;;3.60;;
38972;SDS011;25333;50.762;4.470;2024-01-27T04:29:27;6.68;;;3.28;;
38972;SDS011;25333;50.762;4.470;2024-01-27T04:35:32;7.90;;;3.15;;
38972;SDS011;25333;50.762;4.470;2024-01-27T04:37:57;10.55;;;3.22;;
38972;SDS011;25333;50.762;4.470;2024-01-27T04:40:30;6.30;;;2.95;;
38972;SDS011;25333;50.762;4.470;2024-01-27T04:43:17;7.53;;;3.47;;
38972;SDS011;25333;50.762;4.470;2024-01-27T04:45:45;8.73;;;3.72;;
38972;SDS011;25333;50.762;4.470;2024-01-27T04:48:12;7.53;;;3.65;;
38972;SDS011;25333;50.762;4.470;2024-01-27T04:50:40;9.63;;;4.40;;
38972;SDS011;25333;50.762;4.470;2024-01-27T04:53:09;8.43;;;4.00;;
38972;SDS011;25333;50.762;4.470;2024-01-27T04:55:34;8.00;;;3.72;;
38972;SDS011;25333;50.762;4.470;2024-01-27T04:58:00;8.70;;;3.30;;
38972;SDS011;25333;50.762;4.470;2024-01-27T05:00:43;9.07;;;3.47;;
38972;SDS011;25333;50.762;4.470;2024-01-27T05:03:41;8.23;;;3.38;;
38972;SDS011;25333;50.762;4.470;2024-01-27T05:06:10;7.97;;;3.67;;
38972;SDS011;25333;50.762;4.470;2024-01-27T05:08:36;11.70;;;4.00;;
38972;SDS011;25333;50.762;4.470;2024-01-27T05:11:06;7.50;;;3.97;;
38972;SDS011;25333;50.762;4.470;2024-01-27T05:14:16;6.07;;;3.47;;
38972;SDS011;25333;50.762;4.470;2024-01-27T05:16:45;8.57;;;3.70;;
38972;SDS011;25333;50.762;4.470;2024-01-27T05:19:12;6.93;;;3.65;;
38972;SDS011;25333;50.762;4.470;2024-01-27T05:21:38;7.95;;;4.47;;
38972;SDS011;25333;50.762;4.470;2024-01-27T05:24:04;9.43;;;4.03;;
38972;SDS011;25333;50.762;4.470;2024-01-27T05:26:29;8.57;;;4.40;;
38972;SDS011;25333;50.762;4.470;2024-01-27T05:28:55;8.05;;;4.20;;
38972;SDS011;25333;50.762;4.470;2024-01-27T05:31:25;8.38;;;3.97;;
38972;SDS011;25333;50.762;4.470;2024-01-27T05:36:56;10.50;;;4.53;;
38972;SDS011;25333;50.762;4.470;2024-01-27T05:39:34;5.88;;;3.78;;
38972;SDS011;25333;50.762;4.470;2024-01-27T05:42:00;11.50;;;4.35;;
38972;SDS011;25333;50.762;4.470;2024-01-27T05:44:28;9.02;;;4.78;;
38972;SDS011;25333;50.762;4.470;2024-01-27T05:46:54;7.28;;;3.78;;
38972;SDS011;25333;50.762;4.470;2024-01-27T05:49:20;7.00;;;4.40;;
38972;SDS011;25333;50.762;4.470;2024-01-27T05:51:45;10.32;;;4.72;;
38972;SDS011;25333;50.762;4.470;2024-01-27T05:54:11;6.57;;;4.57;;
38972;SDS011;25333;50.762;4.470;2024-01-27T05:56:39;8.15;;;4.30;;
38972;SDS011;25333;50.762;4.470;2024-01-27T05:59:05;9.85;;;4.45;;
38972;SDS011;25333;50.762;4.470;2024-01-27T06:01:31;7.47;;;4.53;;
38972;SDS011;25333;50.762;4.470;2024-01-27T06:03:57;6.23;;;3.77;;
38972;SDS011;25333;50.762;4.470;2024-01-27T06:06:23;7.88;;;3.90;;
38972;SDS011;25333;50.762;4.470;2024-01-27T06:11:45;8.55;;;4.07;;
38972;SDS011;25333;50.762;4.470;2024-01-27T06:14:14;9.97;;;4.03;;
38972;SDS011;25333;50.762;4.470;2024-01-27T06:16:41;8.48;;;4.35;;
38972;SDS011;25333;50.762;4.470;2024-01-27T06:19:06;5.60;;;4.03;;
38972;SDS011;25333;50.762;4.470;2024-01-27T06:21:32;8.63;;;4.87;;
38972;SDS011;25333;50.762;4.470;2024-01-27T06:24:16;11.40;;;5.60;;
38972;SDS011;25333;50.762;4.470;2024-01-27T06:26:57;9.70;;;4.97;;
38972;SDS011;25333;50.762;4.470;2024-01-27T06:29:28;8.32;;;4.35;;
38972;SDS011;25333;50.762;4.470;2024-01-27T06:31:56;8.88;;;4.70;;
38972;SDS011;25333;50.762;4.470;2024-01-27T06:34:22;8.15;;;4.78;;
38972;SDS011;25333;50.762;4.470;2024-01-27T06:37:06;11.38;;;4.85;;
38972;SDS011;25333;50.762;4.470;2024-01-27T06:39:32;11.95;;;5.43;;
38972;SDS011;25333;50.762;4.470;2024-01-27T06:41:57;9.82;;;5.05;;
38972;SDS011;25333;50.762;4.470;2024-01-27T06:44:38;11.05;;;5.43;;
38972;SDS011;25333;50.762;4.470;2024-01-27T06:47:13;10.48;;;5.18;;
38972;SDS011;25333;50.762;4.470;2024-01-27T06:49:39;9.88;;;4.75;;
38972;SDS011;25333;50.762;4.470;2024-01-27T06:52:05;7.70;;;5.00;;
38972;SDS011;25333;50.762;4.470;2024-01-27T06:54:34;14.37;;;5.67;;
38972;SDS011;25333;50.762;4.470;2024-01-27T06:57:06;10.15;;;4.68;;
38972;SDS011;25333;50.762;4.470;2024-01-27T06:59:42;10.98;;;5.38;;
38972;SDS011;25333;50.762;4.470;2024-01-27T07:02:07;11.10;;;5.53;;
38972;SDS011;25333;50.762;4.470;2024-01-27T07:04:38;7.78;;;4.57;;
38972;SDS011;25333;50.762;4.470;2024-01-27T07:07:08;9.95;;;4.75;;
38972;SDS011;25333;50.762;4.470;2024-01-27T07:09:49;10.98;;;5.65;;
38972;SDS011;25333;50.762;4.470;2024-01-27T07:12:28;10.32;;;4.82;;
38972;SDS011;25333;50.762;4.470;2024-01-27T07:14:54;9.02;;;5.35;;
38972;SDS011;25333;50.762;4.470;2024-01-27T07:17:29;12.43;;;6.20;;
38972;SDS011;25333;50.762;4.470;2024-01-27T07:19:57;9.40;;;5.43;;
38972;SDS011;25333;50.762;4.470;2024-01-27T07:22:23;12.80;;;5.07;;
38972;SDS011;25333;50.762;4.470;2024-01-27T07:24:49;9.77;;;5.60;;
38972;SDS011;25333;50.762;4.470;2024-01-27T07:27:16;13.93;;;5.72;;
38972;SDS011;25333;50.762;4.470;2024-01-27T07:29:43;9.55;;;5.03;;
38972;SDS011;25333;50.762;4.470;2024-01-27T07:32:14;11.63;;;5.80;;
38972;SDS011;25333;50.762;4.470;2024-01-27T07:34:43;11.10;;;5.90;;
38972;SDS011;25333;50.762;4.470;2024-01-27T07:37:09;12.23;;;5.88;;
38972;SDS011;25333;50.762;4.470;2024-01-27T07:39:35;8.87;;;6.00;;
38972;SDS011;25333;50.762;4.470;2024-01-27T07:45:37;8.70;;;5.53;;
38972;SDS011;25333;50.762;4.470;2024-01-27T09:15:58;6.93;;;2.97;;
38972;SDS011;25333;50.762;4.470;2024-01-27T09:18:24;9.77;;;2.70;;
38972;SDS011;25333;50.762;4.470;2024-01-27T09:20:50;9.35;;;2.72;;
38972;SDS011;25333;50.762;4.470;2024-01-27T09:23:16;5.82;;;2.15;;
38972;SDS011;25333;50.762;4.470;2024-01-27T09:25:42;7.80;;;2.75;;
38972;SDS011;25333;50.762;4.470;2024-01-27T09:28:07;9.70;;;2.50;;
38972;SDS011;25333;50.762;4.470;2024-01-27T09:30:33;7.93;;;2.43;;
38972;SDS011;25333;50.762;4.470;2024-01-27T09:32:59;8.75;;;2.72;;
38972;SDS011;25333;50.762;4.470;2024-01-27T09:35:24;5.72;;;2.25;;
38972;SDS011;25333;50.762;4.470;2024-01-27T09:37:50;5.73;;;2.17;;
38972;SDS011;25333;50.762;4.470;2024-01-27T09:40:16;7.15;;;2.28;;
38972;SDS011;25333;50.762;4.470;2024-01-27T09:42:43;7.93;;;2.80;;
38972;SDS011;25333;50.762;4.470;2024-01-27T09:48:40;7.95;;;2.15;;
38972;SDS011;25333;50.762;4.470;2024-01-27T09:51:11;6.38;;;1.83;;
38972;SDS011;25333;50.762;4.470;2024-01-27T09:53:37;6.70;;;2.30;;
38972;SDS011;25333;50.762;4.470;2024-01-27T09:56:05;8.90;;;2.30;;
38972;SDS011;25333;50.762;4.470;2024-01-27T09:58:32;6.85;;;2.28;;
38972;SDS011;25333;50.762;4.470;2024-01-27T10:00:58;10.27;;;3.07;;
38972;SDS011;25333;50.762;4.470;2024-01-27T10:03:50;8.27;;;2.08;;
38972;SDS011;25333;50.762;4.470;2024-01-27T10:06:19;10.85;;;2.45;;
38972;SDS011;25333;50.762;4.470;2024-01-27T10:11:37;7.82;;;2.67;;
38972;SDS011;25333;50.762;4.470;2024-01-27T10:14:07;4.32;;;2.08;;
38972;SDS011;25333;50.762;4.470;2024-01-27T10:16:43;7.82;;;1.95;;
38972;SDS011;25333;50.762;4.470;2024-01-27T10:25:13;12.63;;;2.58;;
38972;SDS011;25333;50.762;4.470;2024-01-27T10:30:36;5.85;;;2.30;;
38972;SDS011;25333;50.762;4.470;2024-01-27T10:33:14;6.43;;;2.28;;
38972;SDS011;25333;50.762;4.470;2024-01-27T10:35:47;7.03;;;2.05;;
38972;SDS011;25333;50.762;4.470;2024-01-27T10:39:22;5.45;;;1.88;;
38972;SDS011;25333;50.762;4.470;2024-01-27T10:41:49;5.93;;;2.13;;
38972;SDS011;25333;50.762;4.470;2024-01-27T10:44:17;5.05;;;1.73;;
38972;SDS011;25333;50.762;4.470;2024-01-27T10:46:45;8.18;;;2.08;;
38972;SDS011;25333;50.762;4.470;2024-01-27T10:49:13;4.78;;;1.70;;
38972;SDS011;25333;50.762;4.470;2024-01-27T10:51:42;5.47;;;1.80;;
38972;SDS011;25333;50.762;4.470;2024-01-27T10:54:22;7.17;;;2.13;;
38972;SDS011;25333;50.762;4.470;2024-01-27T10:56:56;6.05;;;1.67;;
38972;SDS011;25333;50.762;4.470;2024-01-27T10:59:27;4.97;;;1.50;;
38972;SDS011;25333;50.762;4.470;2024-01-27T11:01:58;6.63;;;1.70;;
38972;SDS011;25333;50.762;4.470;2024-01-27T11:04:42;9.98;;;3.88;;
38972;SDS011;25333;50.762;4.470;2024-01-27T11:07:44;4.80;;;2.42;;
38972;SDS011;25333;50.762;4.470;2024-01-27T11:10:12;7.60;;;2.25;;
38972;SDS011;25333;50.762;4.470;2024-01-27T11:12:37;4.20;;;1.57;;
38972;SDS011;25333;50.762;4.470;2024-01-27T11:15:11;6.80;;;1.25;;
38972;SDS011;25333;50.762;4.470;2024-01-27T11:17:58;4.35;;;1.58;;
38972;SDS011;25333;50.762;4.470;2024-01-27T11:20:25;4.93;;;1.50;;
38972;SDS011;25333;50.762;4.470;2024-01-27T11:22:51;4.33;;;1.60;;
38972;SDS011;25333;50.762;4.470;2024-01-27T11:25:17;6.80;;;1.23;;
38972;SDS011;25333;50.762;4.470;2024-01-27T11:27:47;5.85;;;2.25;;
38972;SDS011;25333;50.762;4.470;2024-01-27T11:36:01;6.15;;;2.13;;
38972;SDS011;25333;50.762;4.470;2024-01-27T11:38:28;5.00;;;1.42;;
38972;SDS011;25333;50.762;4.470;2024-01-27T11:40:55;5.25;;;1.73;;
38972;SDS011;25333;50.762;4.470;2024-01-27T11:43:26;5.53;;;1.92;;
38972;SDS011;25333;50.762;4.470;2024-01-27T11:46:26;5.55;;;0.88;;
38972;SDS011;25333;50.762;4.470;2024-01-27T11:48:50;5.10;;;1.55;;
38972;SDS011;25333;50.762;4.470;2024-01-27T11:51:21;6.97;;;2.45;;
38972;SDS011;25333;50.762;4.470;2024-01-27T11:53:48;7.03;;;1.40;;
38972;SDS011;25333;50.762;4.470;2024-01-27T11:56:18;5.47;;;1.65;;
38972;SDS011;25333;50.762;4.470;2024-01-27T11:58:53;3.45;;;0.85;;
38972;SDS011;25333;50.762;4.470;2024-01-27T12:12:26;4.05;;;1.20;;
38972;SDS011;25333;50.762;4.470;2024-01-27T12:15:10;8.13;;;1.42;;
38972;SDS011;25333;50.762;4.470;2024-01-27T12:21:50;8.93;;;1.83;;
38972;SDS011;25333;50.762;4.470;2024-01-27T12:24:28;7.75;;;1.58;;
38972;SDS011;25333;50.762;4.470;2024-01-27T12:26:55;4.13;;;1.13;;
38972;SDS011;25333;50.762;4.470;2024-01-27T12:29:26;5.45;;;1.33;;
38972;SDS011;25333;50.762;4.470;2024-01-27T12:32:11;6.22;;;1.50;;
38972;SDS011;25333;50.762;4.470;2024-01-27T12:34:40;3.15;;;0.80;;
38972;SDS011;25333;50.762;4.470;2024-01-27T12:39:50;5.85;;;1.55;;
38972;SDS011;25333;50.762;4.470;2024-01-27T12:42:22;5.25;;;1.00;;
38972;SDS011;25333;50.762;4.470;2024-01-27T12:44:48;6.63;;;1.00;;
38972;SDS011;25333;50.762;4.470;2024-01-27T12:47:32;4.97;;;1.20;;
38972;SDS011;25333;50.762;4.470;2024-01-27T12:50:15;11.02;;;2.53;;
38972;SDS011;25333;50.762;4.470;2024-01-27T12:55:49;4.80;;;1.58;;
38972;SDS011;25333;50.762;4.470;2024-01-27T12:58:25;6.13;;;1.10;;
38972;SDS011;25333;50.762;4.470;2024-01-27T13:03:46;2.93;;;1.20;;
38972;SDS011;25333;50.762;4.470;2024-01-27T13:06:12;5.25;;;1.20;;
